Time;durP1;ratioP1;P1;durP2;ratioP2;P2;SDS_P1;SDS_P2;PMS_P1;PMS_P2;Temp;Humidity;BMP_temperature;BMP_pressure;BME280_temperature;BME280_humidity;BME280_pressure;Samples;Min_cycle;Max_cycle;Signal;HPM_P1;HPM_P2
2023/03/06 00:00:18;;;;;;;35.58;19.30;;;;;;;7.07;100.00;98830.50;5032558;28;20369;-77
2023/03/06 00:02:44;;;;;;;35.35;19.67;;;;;;;7.12;100.00;98830.91;5036079;28;20037;-76
2023/03/06 00:05:12;;;;;;;39.08;19.05;;;;;;;7.11;100.00;98827.44;5032662;28;20112;-77
2023/03/06 00:07:37;;;;;;;;;;;;;;;7.08;100.00;98826.88;5038282;28;20048;-78
2023/03/06 00:10:03;;;;;;;;;;;;;;;6.99;100.00;98824.13;5018000;28;19922;-79
2023/03/06 00:12:28;;;;;;;;;;;;;;;6.88;100.00;98826.88;5036226;28;19913;-78
2023/03/06 00:14:53;;;;;;;;;;;;;;;6.89;100.00;98831.16;5033227;28;19917;-77
2023/03/06 00:17:19;;;;;;;;;;;;;;;6.92;100.00;98828.25;5033525;28;19944;-77
2023/03/06 00:19:44;;;;;;;;;;;;;;;6.92;100.00;98833.50;5031660;28;20361;-76
2023/03/06 00:22:13;;;;;;;;;;;;;;;6.92;100.00;98824.81;5033270;28;19967;-79
2023/03/06 00:24:39;;;;;;;;;;;;;;;6.88;100.00;98842.63;5028120;28;19965;-77
2023/03/06 00:27:05;;;;;;;;;;;;;;;6.84;100.00;98841.22;5028223;28;19963;-77
2023/03/06 00:29:30;;;;;;;;;;;;;;;6.78;100.00;98841.75;5031153;28;19917;-76
2023/03/06 00:31:56;;;;;;;;;;;;;;;6.74;100.00;98835.16;5013201;28;19928;-75
2023/03/06 00:34:21;;;;;;;;;;;;;;;6.76;100.00;98843.72;5025627;28;19921;-75
2023/03/06 00:36:47;;;;;;;;;;;;;;;6.77;100.00;98844.53;5027827;28;19917;-74
2023/03/06 00:39:12;;;;;;;;;;;;;;;6.72;100.00;98842.31;5024581;28;19929;-76
2023/03/06 00:41:38;;;;;;;;;;;;;;;6.72;100.00;98836.22;5040302;28;19917;-74
2023/03/06 00:44:03;;;;;;;;;;;;;;;6.63;100.00;98835.28;5024009;28;19947;-74
2023/03/06 00:46:29;;;;;;;;;;;;;;;6.54;100.00;98829.03;5028180;28;19944;-73
2023/03/06 00:48:54;;;;;;;;;;;;;;;6.46;100.00;98821.03;5025630;28;19924;-73
2023/03/06 00:51:20;;;;;;;;;;;;;;;6.50;100.00;98819.78;5029818;28;20285;-75
2023/03/06 00:53:46;;;;;;;;;;;;;;;6.48;100.00;98813.03;5025334;28;19917;-75
2023/03/06 00:56:11;;;;;;;;;;;;;;;6.53;100.00;98818.69;5026168;28;20027;-76
2023/03/06 00:58:37;;;;;;;;;;;;;;;6.43;100.00;98815.22;5026383;28;19917;-74
2023/03/06 01:01:02;;;;;;;;;;;;;;;6.41;100.00;98814.53;5028544;28;19921;-76
2023/03/06 01:03:28;;;;;;;;;;;;;;;6.42;100.00;98814.38;5027300;28;19989;-75
2023/03/06 01:05:53;;;;;;;;;;;;;;;6.44;100.00;98811.63;5026276;28;19923;-75
2023/03/06 01:08:19;;;;;;;;;;;;;;;6.48;100.00;98808.59;5025223;28;19916;-75
2023/03/06 01:10:44;;;;;;;;;;;;;;;6.49;100.00;98814.66;5028601;28;19952;-76
2023/03/06 01:13:10;;;;;;;;;;;;;;;6.41;100.00;98806.69;5024273;28;19925;-74
2023/03/06 01:15:35;;;;;;;;;;;;;;;6.30;100.00;98804.16;5027373;28;19978;-75
2023/03/06 01:18:01;;;;;;;;;;;;;;;6.36;100.00;98803.63;5026899;28;19971;-77
2023/03/06 01:20:26;;;;;;;;;;;;;;;6.38;100.00;98796.44;5016823;28;19924;-79
2023/03/06 01:22:54;;;;;;;;;;;;;;;6.36;100.00;98793.16;5027766;28;19969;-78
2023/03/06 01:25:20;;;;;;;;;;;;;;;6.25;100.00;98793.22;5038133;28;19921;-77
2023/03/06 01:27:45;;;;;;;;;;;;;;;6.24;100.00;98789.81;5005938;28;19924;-78
2023/03/06 01:30:11;;;;;;;;;;;;;;;6.18;100.00;98789.50;5027155;28;19917;-78
2023/03/06 01:32:37;;;;;;;;;;;;;;;6.13;100.00;98785.47;5024924;28;19917;-77
2023/03/06 01:35:02;;;;;;;;;;;;;;;6.05;100.00;98785.34;5007190;28;20029;-77
2023/03/06 01:37:29;;;;;;;;;;;;;;;6.00;100.00;98777.06;5027306;28;19917;-78
2023/03/06 01:39:55;;;;;;;30.95;17.35;;;;;;;5.94;100.00;98782.81;5008757;28;20207;-78
2023/03/06 01:42:20;;;;;;;30.25;17.08;;;;;;;5.98;100.00;98778.97;5023439;28;20037;-78
2023/03/06 01:45:15;;;;;;;;;;;;;;;5.94;100.00;98788.06;5027470;28;20044;-79
2023/03/06 01:47:40;;;;;;;;;;;;;;;5.83;100.00;98780.28;4955189;28;20316;-78
2023/03/06 01:50:08;;;;;;;;;;;;;;;5.89;100.00;98774.50;5027794;28;19916;-77
2023/03/06 01:52:37;;;;;;;;;;;;;;;5.95;100.00;98768.75;5015070;28;19917;-77
2023/03/06 01:55:14;;;;;;;;;;;;;;;6.01;100.00;98768.22;5026115;28;19921;-77
2023/03/06 01:57:42;;;;;;;;;;;;;;;5.98;100.00;98768.50;5026416;28;20242;-77
2023/03/06 02:00:08;;;;;;;;;;;;;;;5.96;100.00;98759.94;5032379;28;19921;-76
2023/03/06 02:02:42;;;;;;;;;;;;;;;5.86;100.00;98769.53;5020604;28;20690;-77
2023/03/06 02:05:08;;;;;;;;;;;;;;;5.86;100.00;98764.28;5008454;28;19932;-77
2023/03/06 02:07:35;;;;;;;;;;;;;;;5.81;100.00;98766.47;5007623;28;19917;-76
2023/03/06 02:10:00;;;;;;;;;;;;;;;5.68;100.00;98755.38;5008164;28;20281;-78
2023/03/06 02:12:26;;;;;;;;;;;;;;;5.70;100.00;98753.47;5033301;28;19975;-77
2023/03/06 02:14:52;;;;;;;;;;;;;;;5.77;100.00;98754.63;5009230;28;20388;-76
2023/03/06 02:17:19;;;;;;;;;;;;;;;5.79;100.00;98755.28;5027769;28;19943;-76
2023/03/06 02:19:51;;;;;;;;;;;;;;;5.83;100.00;98754.09;5028765;28;20415;-76
2023/03/06 02:22:17;;;;;;;;;;;;;;;5.87;100.00;98750.28;5029188;28;19917;-78
2023/03/06 02:24:52;;;;;;;;;;;;;;;5.92;100.00;98747.25;5007452;28;19921;-77
2023/03/06 02:27:18;;;;;;;;;;;;;;;5.93;100.00;98741.88;5027454;28;19921;-78
2023/03/06 02:29:43;;;;;;;;;;;;;;;5.89;100.00;98748.31;5012346;28;20023;-76
2023/03/06 02:32:09;;;;;;;;;;;;;;;5.87;100.00;98742.41;5026080;28;19998;-76
2023/03/06 02:34:37;;;;;;;;;;;;;;;5.86;100.00;98740.72;5009570;28;19917;-74
2023/03/06 02:37:07;;;;;;;;;;;;;;;5.83;100.00;98743.63;5022954;28;20347;-75
2023/03/06 02:39:37;;;;;;;;;;;;;;;5.84;100.00;98740.00;5025876;28;19921;-75
2023/03/06 02:42:02;;;;;;;;;;;;;;;5.86;100.00;98743.34;5024481;28;19921;-74
2023/03/06 02:44:30;;;;;;;;;;;;;;;5.80;100.00;98738.63;5008877;28;19970;-75
2023/03/06 02:46:55;;;;;;;;;;;;;;;5.57;100.00;98742.41;5025125;28;19944;-74
2023/03/06 02:49:21;;;;;;;;;;;;;;;5.15;100.00;98747.69;5030069;28;20365;-75
2023/03/06 02:51:46;;;;;;;;;;;;;;;5.14;100.00;98737.34;5030252;28;20062;-76
2023/03/06 02:54:11;;;;;;;;;;;;;;;5.26;100.00;98737.16;5029423;28;20016;-75
2023/03/06 02:56:37;;;;;;;;;;;;;;;5.26;100.00;98738.94;5009461;28;19968;-75
2023/03/06 02:59:03;;;;;;;;;;;;;;;5.20;100.00;98735.03;5024550;28;19933;-75
2023/03/06 03:01:29;;;;;;;;;;;;;;;5.32;100.00;98739.25;5008419;28;20020;-73
2023/03/06 03:03:54;;;;;;;;;;;;;;;5.39;100.00;98741.34;5039579;28;19929;-75
2023/03/06 03:06:20;;;;;;;;;;;;;;;5.34;100.00;98742.56;5025797;28;19917;-77
2023/03/06 03:08:45;;;;;;;;;;;;;;;5.47;100.00;98737.13;5023909;28;19925;-75
2023/03/06 03:11:12;;;;;;;;;;;;;;;5.42;100.00;98730.63;5026330;28;20022;-73
2023/03/06 03:13:41;;;;;;;;;;;;;;;5.39;100.00;98733.50;5005824;28;20332;-73
2023/03/06 03:16:15;;;;;;;;;;;;;;;5.09;100.00;98740.34;5006709;28;19932;-75
2023/03/06 03:18:43;;;;;;;;;;;;;;;4.95;100.00;98736.25;5020768;28;20016;-75
2023/03/06 03:21:10;;;;;;;;;;;;;;;5.01;100.00;98734.91;5008404;28;19993;-74
2023/03/06 03:23:36;;;;;;;;;;;;;;;4.95;100.00;98733.63;5027187;28;20353;-74
2023/03/06 03:26:08;;;;;;;;;;;;;;;4.94;100.00;98728.56;5026848;28;20380;-75
2023/03/06 03:28:35;;;;;;;;;;;;;;;4.97;100.00;98730.91;5005523;28;19941;-74
2023/03/06 03:31:01;;;;;;;;;;;;;;;5.01;100.00;98721.84;5021021;28;20370;-73
2023/03/06 03:33:27;;;;;;;;;;;;;;;4.99;100.00;98729.00;5010544;28;20525;-77
2023/03/06 03:35:57;;;;;;;;;;;;;;;5.02;100.00;98726.13;5004521;28;19929;-77
2023/03/06 03:38:23;;;;;;;;;;;;;;;5.06;100.00;98722.31;5010961;28;19917;-74
2023/03/06 03:40:49;;;;;;;;;;;;;;;4.96;100.00;98718.78;5026417;28;20326;-74
2023/03/06 03:43:14;;;;;;;;;;;;;;;5.03;100.00;98717.31;5011398;28;19933;-74
2023/03/06 03:45:40;;;;;;;;;;;;;;;5.02;100.00;98705.19;5026309;28;20394;-74
2023/03/06 03:48:05;;;;;;;;;;;;;;;4.97;100.00;98715.22;5007005;28;19917;-78
2023/03/06 03:50:32;;;;;;;;;;;;;;;4.94;100.00;98705.88;5040288;28;19921;-77
2023/03/06 03:52:58;;;;;;;;;;;;;;;4.84;100.00;98710.19;5027187;28;20284;-76
2023/03/06 03:55:23;;;;;;;;;;;;;;;4.93;100.00;98711.22;5026464;28;20023;-76
2023/03/06 03:57:49;;;;;;;;;;;;;;;4.92;100.00;98699.94;5013730;28;19917;-76
2023/03/06 04:00:15;;;;;;;;;;;;;;;4.90;100.00;98709.66;5022945;28;19925;-77
2023/03/06 04:02:50;;;;;;;;;;;;;;;4.71;100.00;98706.13;5029087;28;20249;-76
2023/03/06 04:05:23;;;;;;;;;;;;;;;4.73;100.00;98698.94;5015368;28;19967;-78
2023/03/06 04:07:49;;;;;;;;;;;;;;;4.70;100.00;98700.06;5006777;28;19922;-77
2023/03/06 04:10:15;;;;;;;;;;;;;;;4.67;100.00;98699.47;5013992;28;19925;-77
2023/03/06 04:12:41;;;;;;;;;;;;;;;4.84;100.00;98701.50;5026840;28;20292;-76
2023/03/06 04:15:08;;;;;;;;;;;;;;;4.91;100.00;98697.44;5012527;28;20001;-76
2023/03/06 04:17:34;;;;;;;;;;;;;;;4.99;100.00;98707.25;5037900;28;20387;-77
2023/03/06 04:20:01;;;;;;;;;;;;;;;4.97;100.00;98707.38;5026167;28;20394;-76
2023/03/06 04:22:28;;;;;;;;;;;;;;;5.05;100.00;98709.34;5039284;28;19979;-76
2023/03/06 04:24:53;;;;;;;;;;;;;;;5.00;100.00;98701.91;5020072;28;19964;-76
2023/03/06 04:27:19;;;;;;;;;;;;;;;5.15;100.00;98699.78;5010840;28;19923;-74
2023/03/06 04:29:45;;;;;;;;;;;;;;;5.16;100.00;98704.88;5024546;28;19940;-74
2023/03/06 04:32:11;;;;;;;;;;;;;;;5.08;100.00;98709.91;5008028;28;19929;-74
2023/03/06 04:34:37;;;;;;;;;;;;;;;5.08;100.00;98709.91;5008308;28;19924;-74
2023/03/06 04:37:03;;;;;;;;;;;;;;;5.05;100.00;98707.56;5026799;28;20239;-74
2023/03/06 04:39:28;;;;;;;;;;;;;;;5.14;100.00;98705.97;5025639;28;19917;-74
2023/03/06 04:41:54;;;;;;;;;;;;;;;5.19;100.00;98707.22;5010187;28;19917;-73
2023/03/06 04:44:19;;;;;;;;;;;;;;;5.23;100.00;98707.81;5022486;28;19918;-74
2023/03/06 04:46:45;;;;;;;;;;;;;;;5.25;100.00;98711.94;5024970;28;19917;-74
2023/03/06 04:49:10;;;;;;;;;;;;;;;5.32;100.00;98707.84;5025688;28;20019;-75
2023/03/06 04:51:36;;;;;;;;;;;;;;;5.33;100.00;98709.50;5026128;28;19924;-75
2023/03/06 04:54:02;;;;;;;;;;;;;;;5.39;100.00;98707.34;5024006;28;19914;-74
2023/03/06 04:56:27;;;;;;;;;;;;;;;5.38;100.00;98705.66;5027475;28;19917;-75
2023/03/06 04:58:53;;;;;;;;;;;;;;;5.35;100.00;98707.59;5024033;28;19932;-75
2023/03/06 05:01:18;;;;;;;;;;;;;;;5.30;100.00;98712.38;5021065;28;19921;-76
2023/03/06 05:03:44;;;;;;;;;;;;;;;5.37;100.00;98710.06;5026950;28;19996;-77
2023/03/06 05:06:09;;;;;;;;;;;;;;;5.34;100.00;98711.19;4995982;28;20004;-74
2023/03/06 05:08:35;;;;;;;;;;;;;;;5.33;100.00;98713.91;5006164;28;19929;-75
2023/03/06 05:11:00;;;;;;;;;;;;;;;5.35;100.00;98720.69;5026737;28;20007;-76
2023/03/06 05:13:27;;;;;;;33.78;21.23;;;;;;;5.33;100.00;98719.97;5024423;28;19956;-76
2023/03/06 05:15:52;;;;;;;;;;;;;;;5.33;100.00;98717.38;5026549;28;20053;-76
2023/03/06 05:18:18;;;;;;;;;;;;;;;5.29;100.00;98713.34;5023705;28;19952;-76
2023/03/06 05:20:43;;;;;;;;;;;;;;;5.39;100.00;98712.56;5024627;28;19926;-75
2023/03/06 05:23:09;;;;;;;;;;;;;;;5.30;100.00;98719.41;5021729;28;20007;-76
2023/03/06 05:25:37;;;;;;;;;;;;;;;5.29;100.00;98718.59;5026187;28;19924;-76
2023/03/06 05:28:02;;;;;;;;;;;;;;;5.31;100.00;98721.88;5024420;28;19954;-77
2023/03/06 05:30:27;;;;;;;;;;;;;;;5.22;100.00;98714.00;5026925;28;19917;-75
2023/03/06 05:32:53;;;;;;;;;;;;;;;5.16;100.00;98707.50;5023718;28;19913;-76
2023/03/06 05:35:20;;;;;;;;;;;;;;;5.15;100.00;98718.09;5019740;28;20388;-75
2023/03/06 05:37:46;;;;;;;;;;;;;;;5.11;100.00;98714.91;5022405;28;19913;-76
2023/03/06 05:40:12;;;;;;;;;;;;;;;5.02;100.00;98725.28;5027404;28;19927;-76
2023/03/06 05:42:37;;;;;;;;;;;;;;;5.08;100.00;98709.91;5023281;28;19956;-76
2023/03/06 05:45:03;;;;;;;;;;;;;;;5.14;100.00;98708.56;5025386;28;19998;-75
2023/03/06 05:47:29;;;;;;;;;;;;;;;5.07;100.00;98708.25;5024596;28;19917;-76
2023/03/06 05:49:54;;;;;;;;;;;;;;;5.09;100.00;98711.59;5008782;28;20337;-75
2023/03/06 05:52:20;;;;;;;;;;;;;;;5.17;100.00;98709.16;5023063;28;20328;-75
2023/03/06 05:54:49;;;;;;;32.42;19.85;;;;;;;5.14;100.00;98709.41;5022929;28;19917;-76
2023/03/06 05:57:15;;;;;;;33.78;19.20;;;;;;;5.05;100.00;98707.56;5025516;28;20867;-75
2023/03/06 05:59:41;;;;;;;35.05;20.83;;;;;;;4.93;100.00;98711.22;5026940;28;19917;-75
2023/03/06 06:02:06;;;;;;;37.50;21.80;;;;;;;4.73;100.00;98707.63;5022665;28;20034;-75
2023/03/06 06:04:32;;;;;;;;;;;;;;;4.43;100.00;98708.34;5025935;28;20030;-77
2023/03/06 06:06:58;;;;;;;;;;;;;;;4.41;100.00;98715.50;5023586;28;19917;-75
2023/03/06 06:09:24;;;;;;;;;;;;;;;4.52;100.00;98710.22;5023551;28;19917;-77
2023/03/06 06:11:51;;;;;;;;;;;;;;;4.52;100.00;98712.84;5023067;28;20339;-78
2023/03/06 06:14:17;;;;;;;;;;;;;;;4.51;100.00;98721.63;5007596;28;19925;-75
2023/03/06 06:16:43;;;;;;;;;;;;;;;4.48;100.00;98719.25;5022758;28;20002;-76
2023/03/06 06:19:09;;;;;;;;;;;;;;;4.53;100.00;98721.50;5023728;28;19928;-74
2023/03/06 06:21:34;;;;;;;;;;;;;;;4.58;100.00;98721.97;5020329;28;19927;-75
2023/03/06 06:24:00;;;;;;;;;;;;;;;4.53;100.00;98724.97;5024246;28;19948;-75
2023/03/06 06:26:26;;;;;;;;;;;;;;;4.58;100.00;98721.97;5025568;28;19918;-74
2023/03/06 06:28:52;;;;;;;;;;;;;;;4.68;100.00;98727.25;5019432;28;19917;-74
2023/03/06 06:31:17;;;;;;;;;;;;;;;4.69;100.00;98723.69;5026818;28;19917;-74
2023/03/06 06:33:43;;;;;;;;;;;;;;;4.65;100.00;98724.91;5024611;28;19925;-75
2023/03/06 06:36:15;;;;;;;;;;;;;;;4.67;100.00;98725.59;5025100;28;19928;-75
2023/03/06 06:38:41;;;;;;;;;;;;;;;4.70;100.00;98722.75;5023043;28;20300;-77
2023/03/06 06:41:06;;;;;;;;;;;;;;;4.78;100.00;98728.16;5029997;28;20355;-74
2023/03/06 06:43:31;;;;;;;;;;;;;;;4.74;100.00;98727.59;5023056;28;20005;-73
2023/03/06 06:45:57;;;;;;;;;;;;;;;4.58;100.00;98715.91;5025255;28;19921;-74
2023/03/06 06:48:23;;;;;;;;;;;;;;;4.66;100.00;98729.16;5023451;28;19922;-75
2023/03/06 06:50:53;;;;;;;;;;;;;;;4.72;100.00;98723.44;5026466;28;19961;-76
2023/03/06 06:53:19;;;;;;;;;;;;;;;4.80;100.00;98731.47;5008725;28;19948;-76
2023/03/06 06:55:44;;;;;;;;;;;;;;;4.89;100.00;98734.16;5028810;28;19925;-76
2023/03/06 06:58:10;;;;;;;;;;;;;;;4.99;100.00;98742.06;5005785;28;19920;-75
2023/03/06 07:00:35;;;;;;;;;;;;;;;4.97;100.00;98738.75;5026913;28;19917;-76
2023/03/06 07:03:01;;;;;;;;;;;;;;;5.07;100.00;98739.63;5032881;28;19917;-74
2023/03/06 07:05:26;;;;;;;;;;;;;;;5.22;100.00;98738.38;5029151;28;20023;-76
2023/03/06 07:07:52;;;;;;;;;;;;;;;5.31;100.00;98739.38;5027532;28;19965;-76
2023/03/06 07:10:17;;;;;;;;;;;;;;;5.22;100.00;98737.53;5030066;28;20273;-76
2023/03/06 07:12:43;;;;;;;;;;;;;;;5.31;100.00;98742.81;5011333;28;19917;-76
2023/03/06 07:15:10;;;;;;;;;;;;;;;5.28;100.00;98737.84;5030486;28;19920;-77
2023/03/06 07:17:36;;;;;;;;;;;;;;;5.43;100.00;98740.13;5032764;28;19917;-77
2023/03/06 07:20:01;;;;;;;;;;;;;;;5.29;100.00;98739.50;5030861;28;19967;-76
2023/03/06 07:22:27;;;;;;;;;;;;;;;5.13;100.00;98744.34;5034310;28;19999;-75
2023/03/06 07:24:52;;;;;;;;;;;;;;;5.34;100.00;98737.34;5029946;28;19928;-75
2023/03/06 07:27:18;;;;;;;;;;;;;;;5.58;100.00;98734.44;5030423;28;19917;-75
2023/03/06 07:29:43;;;;;;;;;;;;;;;5.65;100.00;98745.19;5030044;28;20294;-75
2023/03/06 07:32:09;;;;;;;;;;;;;;;5.78;100.00;98745.78;5030481;28;19921;-76
2023/03/06 07:34:35;;;;;;;;;;;;;;;5.97;100.00;98745.88;5034074;28;19924;-76
2023/03/06 07:37:00;;;;;;;;;;;;;;;6.11;100.00;98748.13;5029296;28;19917;-75
2023/03/06 07:39:27;;;;;;;;;;;;;;;6.16;100.00;98742.50;5028231;28;20008;-74
2023/03/06 07:41:52;;;;;;;;;;;;;;;6.24;100.00;98747.91;5008664;28;19996;-75
2023/03/06 07:44:17;;;;;;;;;;;;;;;6.32;100.00;98744.56;5028179;28;20001;-75
2023/03/06 07:46:43;;;;;;;;;;;;;;;6.39;100.00;98745.69;5027627;28;20001;-75
2023/03/06 07:49:08;;;;;;;;;;;;;;;6.48;100.00;98744.91;5027517;28;19921;-76
2023/03/06 07:51:34;;;;;;;;;;;;;;;6.69;100.00;98752.63;5029210;28;20015;-75
2023/03/06 07:53:59;;;;;;;;;;;;;;;6.65;100.00;98746.84;5028114;28;19924;-75
2023/03/06 07:56:25;;;;;;;;;;;;;;;6.67;100.00;98747.50;5030280;28;19997;-76
2023/03/06 07:58:50;;;;;;;;;;;;;;;6.74;100.00;98753.88;5026082;28;19952;-75
2023/03/06 08:01:18;;;;;;;;;;;;;;;6.77;100.00;98745.75;5024168;28;19926;-75
2023/03/06 08:03:44;;;;;;;;;;;;;;;6.81;100.00;98746.28;5029597;28;19921;-75
2023/03/06 08:06:10;;;;;;;;;;;;;;;6.78;100.00;98752.59;5027853;28;20004;-74
2023/03/06 08:08:36;;;;;;;;;;;;;;;6.74;100.00;98745.16;5030189;28;20007;-75
2023/03/06 08:11:01;;;;;;;;;;;;;;;6.85;100.00;98752.88;5028916;28;19916;-75
2023/03/06 08:13:27;;;;;;;;;;;;;;;6.77;100.00;98756.22;5026325;28;19917;-76
2023/03/06 08:15:52;;;;;;;;;;;;;;;6.76;100.00;98754.56;5025891;28;19940;-74
2023/03/06 08:18:19;;;;;;;;;;;;;;;6.82;100.00;98748.78;5028559;28;19956;-75
2023/03/06 08:20:44;;;;;;;;;;;;;;;7.06;100.00;98760.63;5027208;28;19971;-75
2023/03/06 08:23:10;;;;;;;;;;;;;;;7.03;100.00;98750.38;5027404;28;20378;-75
2023/03/06 08:25:36;;;;;;;;;;;;;;;7.14;100.00;98758.09;5027639;28;19924;-76
2023/03/06 08:28:02;;;;;;;;;;;;;;;7.26;100.00;98767.47;5021734;28;19924;-75
2023/03/06 08:30:28;;;;;;;;;;;;;;;7.35;100.00;98759.59;5029221;28;19950;-75
2023/03/06 08:32:53;;;;;;;;;;;;;;;7.33;100.00;98758.06;5025328;28;19928;-75
2023/03/06 08:35:19;;;;;;;;;;;;;;;7.40;100.00;98759.19;5029638;28;19970;-75
2023/03/06 08:37:44;;;;;;;;;;;;;;;7.50;100.00;98754.72;5025187;28;19925;-76
2023/03/06 08:40:12;;;;;;;;;;;;;;;7.61;100.00;98751.91;5027357;28;19924;-75
2023/03/06 08:42:37;;;;;;;;;;;;;;;7.71;100.00;98755.34;5026742;28;20404;-74
2023/03/06 08:45:03;;;;;;;;;;;;;;;7.76;100.00;98755.75;5037079;22;19984;-84
2023/03/06 08:47:28;;;;;;;;;;;;;;;7.95;100.00;98756.63;5016280;28;20017;-85
2023/03/06 08:49:54;;;;;;;;;;;;;;;7.99;100.00;98758.00;5016603;28;20010;-84
2023/03/06 08:52:19;;;;;;;;;;;;;;;7.92;100.00;98764.78;5014480;28;20011;-85
2023/03/06 08:54:44;;;;;;;;;;;;;;;7.95;100.00;98764.53;5018671;28;20401;-85
2023/03/06 08:57:10;;;;;;;;;;;;;;;8.05;100.00;98755.59;5018242;28;20004;-85
2023/03/06 08:59:35;;;;;;;;;;;;;;;8.21;100.00;98762.84;5020237;28;19928;-85
2023/03/06 09:02:01;;;;;;;;;;;;;;;8.20;100.00;98756.75;5023283;28;19921;-86
2023/03/06 09:04:28;;;;;;;;;;;;;;;8.30;100.00;98759.38;5012550;28;20392;-85
2023/03/06 09:06:53;;;;;;;;;;;;;;;8.45;100.00;98757.06;5015694;28;19917;-85
2023/03/06 09:09:19;;;;;;;;;;;;;;;8.40;100.00;98760.13;5025067;28;19992;-85
2023/03/06 09:11:44;;;;;;;;;;;;;;;8.57;100.00;98756.69;5030824;28;20433;-85
2023/03/06 09:14:09;;;;;;;;;;;;;;;8.69;100.00;98764.38;5034608;28;19924;-85
2023/03/06 09:16:34;;;;;;;;;;;;;;;8.72;100.00;98764.09;5019605;28;20342;-85
2023/03/06 09:19:00;;;;;;;;;;;;;;;8.88;100.00;98758.97;5015050;28;20389;-85
2023/03/06 09:21:27;;;;;;;;;;;;;;;8.94;100.00;98747.84;5019603;28;19936;-85
2023/03/06 09:23:52;;;;;;;;;;;;;;;9.09;100.00;98751.56;5016763;28;20003;-84
2023/03/06 09:26:18;;;;;;;;;;;;;;;9.24;100.00;98750.03;5025764;28;20059;-84
2023/03/06 09:28:43;;;;;;;;;;;;;;;9.25;100.00;98745.56;5027800;28;19968;-86
2023/03/06 09:31:16;;;;;;;;;;;;;;;9.31;100.00;98751.06;5014887;28;19921;-85
2023/03/06 09:33:42;;;;;;;;;;;;;;;9.37;100.00;98744.34;5022939;28;20407;-86
2023/03/06 09:36:10;;;;;;;;;;;;;;;9.35;100.00;98744.53;5019621;28;19921;-85
2023/03/06 09:38:35;;;;;;;;;;;;;;;9.54;100.00;98740.03;5014382;28;19917;-85
2023/03/06 09:41:23;;;;;;;;;;;;;;;9.68;100.00;98739.44;5025563;28;20297;-85
2023/03/06 09:43:51;;;;;;;;;;;;;;;9.79;100.00;98741.78;5019039;28;19917;-85
2023/03/06 09:46:31;;;;;;;;;;;;;;;9.95;100.00;98741.06;5011496;28;19921;-85
2023/03/06 09:49:09;;;;;;;;;;;;;;;9.99;100.00;98730.03;5035087;28;19917;-86
2023/03/06 09:52:00;;;;;;;;;;;;;;;10.06;100.00;98731.06;5017433;28;19924;-85
2023/03/06 09:54:33;;;;;;;;;;;;;;;10.06;100.00;98733.69;5013965;28;19928;-85
2023/03/06 09:56:58;;;;;;;;;;;;;;;10.16;100.00;98729.13;5018964;28;19940;-86
2023/03/06 09:59:25;;;;;;;;;;;;;;;10.25;100.00;98729.97;5017712;28;19952;-85
2023/03/06 10:01:56;;;;;;;;;;;;;;;10.43;100.00;98721.94;5029094;28;19944;-86
2023/03/06 10:04:31;;;;;;;;;;;;;;;10.44;100.00;98724.41;5021119;28;20391;-85
2023/03/06 10:06:59;;;;;;;;;;;;;;;10.51;100.00;98719.31;5018190;28;20376;-86
2023/03/06 10:09:44;;;;;;;;;;;;;;;10.65;100.00;98718.69;5018245;28;19918;-85
2023/03/06 10:12:16;;;;;;;;;;;;;;;10.67;100.00;98720.16;5034354;28;19961;-85
2023/03/06 10:15:00;;;;;;;;;;;;;;;10.81;100.00;98710.78;5016867;28;19924;-85
2023/03/06 10:17:29;;;;;;;;;;;;;;;10.81;100.00;98705.50;5015964;28;19964;-85
2023/03/06 10:19:55;;;;;;;;;;;;;;;10.82;100.00;98711.59;5016610;28;19944;-83
2023/03/06 10:22:27;;;;;;;;;;;;;;;10.96;100.00;98709.13;5017643;28;19917;-85
2023/03/06 10:24:53;;;;;;;;;;;;;;;11.00;100.00;98705.19;5013563;28;20004;-85
2023/03/06 10:27:20;;;;;;;;;;;;;;;11.06;100.00;98696.59;5018058;28;19955;-85
2023/03/06 10:30:00;;;;;;;;;;;;;;;11.03;100.00;98704.84;5010175;28;19917;-85
2023/03/06 10:32:44;;;;;;;;;;;;;;;11.09;100.00;98695.41;5018826;28;19949;-84
2023/03/06 10:35:21;;;;;;;;;;;;;;;11.18;100.00;98690.97;5018390;28;19924;-84
2023/03/06 10:37:47;;;;;;;;;;;;;;;11.20;100.00;98696.88;5022137;28;19971;-88
2023/03/06 10:40:18;;;;;;;;;;;;;;;11.14;100.00;98684.34;5024629;28;20011;-85
2023/03/06 10:42:43;;;;;;;;;;;;;;;11.07;100.00;98690.28;5029234;28;19924;-85
2023/03/06 10:45:13;;;;;;;;;;;;;;;11.06;100.00;98693.13;5030130;28;19920;-86
2023/03/06 10:47:39;;;;;;;;;;;;;;;11.04;100.00;98693.28;5029874;28;19947;-83
2023/03/06 10:50:24;;;;;;;;;;;;;;;10.99;100.00;98690.31;5034884;28;19921;-87
2023/03/06 10:53:04;;;;;;;;;;;;;;;11.06;100.00;98693.94;5035671;28;19921;-86
2023/03/06 10:55:31;;;;;;;;;;;;;;;11.14;100.00;98689.63;5033227;28;19917;-88
2023/03/06 10:57:57;;;;;;;;;;;;;;;11.28;100.00;98692.44;5036420;28;19918;-87
2023/03/06 11:00:24;;;;;;;;;;;;;;;11.39;100.00;98684.16;5038420;28;19944;-88
2023/03/06 11:03:03;;;;;;;;;;;;;;;11.44;100.00;98687.09;5040673;28;20639;-86
2023/03/06 11:05:28;;;;;;;;;;;;;;;11.44;100.00;98686.28;5040517;28;19921;-85
2023/03/06 11:07:58;;;;;;;;;;;;;;;11.42;100.00;98683.00;5031891;28;19928;-89
2023/03/06 11:10:24;;;;;;;;;;;;;;;11.44;100.00;98688.91;5035474;28;20024;-84
2023/03/06 11:13:20;;;;;;;;;;;;;;;11.53;100.00;98679.16;5037875;28;20369;-88
2023/03/06 11:16:05;;;;;;;;;;;;;;;11.64;100.00;98684.91;5029265;28;20016;-88
2023/03/06 11:18:34;;;;;;;;;;;;;;;11.74;100.00;98682.09;5024475;28;20011;-86
2023/03/06 11:21:06;;;;;;;;;;;;;;;11.80;100.00;98682.22;5024506;28;19918;-87
2023/03/06 11:23:39;;;;;;;;;;;;;;;11.84;100.00;98678.22;5025595;28;20004;-88
2023/03/06 11:26:14;;;;;;;;;;;;;;;11.94;100.00;98671.94;5030648;28;20012;-87
2023/03/06 11:28:43;;;;;;;;;;;;;;;11.92;100.00;98668.63;5029975;28;19917;-88
2023/03/06 11:31:22;;;;;;;;;;;;;;;12.00;100.00;98666.78;5023185;28;19917;-87
2023/03/06 11:34:01;;;;;;;;;;;;;;;12.02;100.00;98669.22;5027454;28;20369;-87
2023/03/06 11:36:35;;;;;;;;;;;;;;;12.03;100.00;98660.31;5025395;28;19917;-87
2023/03/06 11:39:02;;;;;;;;;;;;;;;11.99;100.00;98659.00;5030399;28;19975;-85
2023/03/06 11:41:32;;;;;;;;;;;;;;;11.97;100.00;98661.00;5031647;28;20357;-87
2023/03/06 11:44:06;;;;;;;;;;;;;;;11.94;100.00;98658.72;5028262;28;19917;-87
2023/03/06 11:46:35;;;;;;;;;;;;;;;11.95;100.00;98655.06;5024190;28;19921;-87
2023/03/06 11:49:05;;;;;;;;;;;;;;;12.02;100.00;98648.06;5027781;28;20439;-87
2023/03/06 11:51:33;;;;;;;;;;;;;;;12.12;100.00;98638.13;5038659;28;19924;-88
2023/03/06 11:53:59;;;;;;;;;;;;;;;12.19;100.00;98641.72;5023618;28;19951;-85
2023/03/06 11:56:36;;;;;;;;;;;;;;;12.25;100.00;98644.47;5033964;28;19917;-87
2023/03/06 11:59:20;;;;;;;;;;;;;;;12.34;100.00;98632.00;5034501;28;19981;-88
2023/03/06 12:01:59;;;;;;;;;;;;;;;12.48;100.00;98628.63;5032236;28;19931;-87
2023/03/06 12:04:30;;;;;;;;;;;;;;;12.50;100.00;98625.75;5027954;28;20007;-88
2023/03/06 12:06:59;;;;;;;;;;;;;;;12.53;100.00;98620.13;5026980;28;19928;-87
2023/03/06 12:09:40;;;;;;;;;;;;;;;12.54;100.00;98617.31;5032025;28;19924;-87
2023/03/06 12:12:06;;;;;;;;;;;;;;;12.57;100.00;98610.84;5033719;28;19917;-88
2023/03/06 12:14:43;;;;;;;;;;;;;;;12.60;100.00;98600.72;5033588;28;20385;-88
2023/03/06 12:17:08;;;;;;;;;;;;;;;12.78;100.00;98602.22;5027816;28;19922;-87
2023/03/06 12:19:36;;;;;;;;;;;;;;;12.79;99.43;98601.19;5033873;28;19924;-87
2023/03/06 12:22:05;;;;;;;;;;;;;;;12.82;99.00;98598.22;5038349;28;19986;-88
2023/03/06 12:24:42;;;;;;;;;;;;;;;12.87;99.16;98590.53;5035799;28;19923;-85
2023/03/06 12:27:22;;;;;;;;;;;;;;;12.98;99.09;98587.44;5038557;28;19960;-87
2023/03/06 12:30:07;;;;;;;;;;;;;;;13.07;98.18;98583.72;5033808;28;19921;-86
2023/03/06 12:32:51;;;;;;;;;;;;;;;13.11;96.75;98577.06;5040324;28;19917;-91
2023/03/06 12:35:42;;;;;;;;;;;;;;;13.16;97.60;98569.41;5040030;28;19917;-87
2023/03/06 12:38:08;;;;;;;;;;;;;;;13.20;95.82;98568.03;4330687;28;10000749;-87
2023/03/06 12:40:36;;;;;;;;;;;;;;;13.25;93.84;98567.50;5024156;28;19968;-89
2023/03/06 12:43:09;;;;;;;;;;;;;;;13.31;93.50;98556.97;5028704;28;19925;-87